Time;durP1;ratioP1;P1;durP2;ratioP2;P2;SDS_P1;SDS_P2;PMS_P1;PMS_P2;Temp;Humidity;BMP_temperature;BMP_pressure;BME280_temperature;BME280_humidity;BME280_pressure;Samples;Min_cycle;Max_cycle;Signal;HPM_P1;HPM_P2
2021/01/31 00:00:16;;;;;;;6.68;5.22;;;17.40;52.50;;;;;;5105796;28;20256;-54
2021/01/31 00:02:42;;;;;;;4.82;4.43;;;17.40;52.50;;;;;;5105413;28;20594;-59
2021/01/31 00:05:08;;;;;;;6.13;4.80;;;17.40;52.60;;;;;;5105764;28;20698;-55
2021/01/31 00:07:33;;;;;;;4.50;4.10;;;17.40;52.50;;;;;;5105524;28;21042;-53
2021/01/31 00:09:59;;;;;;;5.45;4.72;;;17.30;52.60;;;;;;5105709;28;20645;-52
2021/01/31 00:12:24;;;;;;;5.28;4.60;;;17.30;52.40;;;;;;5105436;28;20565;-59
2021/01/31 00:14:50;;;;;;;5.03;4.57;;;17.40;52.50;;;;;;5105550;28;20522;-58
2021/01/31 00:17:15;;;;;;;5.18;4.25;;;17.30;52.50;;;;;;5105402;28;20177;-58
2021/01/31 00:19:41;;;;;;;4.82;3.80;;;17.40;52.50;;;;;;5105445;28;20256;-59
2021/01/31 00:22:06;;;;;;;5.18;4.68;;;17.30;52.60;;;;;;5105395;28;20192;-57
2021/01/31 00:24:32;;;;;;;4.70;4.30;;;17.30;52.50;;;;;;5105344;28;20169;-53
2021/01/31 00:26:57;;;;;;;4.72;4.22;;;17.30;52.50;;;;;;5105106;28;20170;-52
2021/01/31 00:29:23;;;;;;;4.28;3.88;;;17.20;52.50;;;;;;5105221;28;20192;-52
2021/01/31 00:31:49;;;;;;;4.55;4.15;;;17.30;52.50;;;;;;5104720;28;20201;-52
2021/01/31 00:34:16;;;;;;;5.10;4.43;;;17.20;52.50;;;;;;5105120;28;20173;-54
2021/01/31 00:36:43;;;;;;;5.20;4.47;;;17.20;52.50;;;;;;5105202;28;20218;-55
2021/01/31 00:39:09;;;;;;;6.05;4.38;;;17.20;52.40;;;;;;5105005;28;20657;-55
2021/01/31 00:41:35;;;;;;;4.20;3.85;;;17.20;52.50;;;;;;5104998;28;20197;-58
2021/01/31 00:44:01;;;;;;;4.55;4.13;;;17.20;52.50;;;;;;5105005;28;20583;-58
2021/01/31 00:46:27;;;;;;;4.72;4.05;;;17.10;52.50;;;;;;5104900;28;20177;-55
2021/01/31 00:48:53;;;;;;;4.88;4.38;;;17.10;52.40;;;;;;5104565;28;20176;-56
2021/01/31 00:51:18;;;;;;;5.47;4.05;;;17.10;52.40;;;;;;5104964;28;20265;-55
2021/01/31 00:53:44;;;;;;;4.63;4.20;;;17.10;52.40;;;;;;5105032;28;20534;-58
2021/01/31 00:56:09;;;;;;;5.47;4.50;;;17.10;52.50;;;;;;5104841;28;20181;-58
2021/01/31 00:58:35;;;;;;;4.78;4.28;;;17.10;52.50;;;;;;5104875;28;20203;-58
2021/01/31 01:01:00;;;;;;;4.60;4.20;;;17.00;52.40;;;;;;5104614;28;20189;-57
2021/01/31 01:03:26;;;;;;;4.40;3.95;;;17.10;52.50;;;;;;5104808;28;20169;-58
2021/01/31 01:05:51;;;;;;;4.25;3.85;;;17.00;52.40;;;;;;5104783;28;20256;-56
2021/01/31 01:08:17;;;;;;;4.55;3.88;;;17.10;52.40;;;;;;5104930;28;20184;-55
2021/01/31 01:10:43;;;;;;;5.32;4.18;;;17.00;52.30;;;;;;5104684;28;20230;-55
2021/01/31 01:13:08;;;;;;;3.90;3.60;;;17.00;52.40;;;;;;5104836;28;20266;-57
2021/01/31 01:15:34;;;;;;;4.22;3.83;;;17.00;52.40;;;;;;5104705;28;20168;-58
2021/01/31 01:17:59;;;;;;;4.68;4.18;;;16.90;52.40;;;;;;5104533;28;20694;-57
2021/01/31 01:20:25;;;;;;;3.92;3.58;;;16.90;52.40;;;;;;5104793;28;20809;-54
2021/01/31 01:22:51;;;;;;;4.53;4.07;;;16.90;52.40;;;;;;5104533;28;20728;-57
2021/01/31 01:25:17;;;;;;;4.15;3.75;;;16.90;52.30;;;;;;5104286;28;20201;-55
2021/01/31 01:27:43;;;;;;;4.00;3.55;;;16.90;52.30;;;;;;5120199;28;20569;-56
2021/01/31 01:30:10;;;;;;;4.00;3.60;;;16.90;52.30;;;;;;5104166;28;20177;-53
2021/01/31 01:32:37;;;;;;;5.25;3.53;;;16.90;52.30;;;;;;5103976;28;20615;-56
2021/01/31 01:35:04;;;;;;;5.35;3.58;;;16.90;52.30;;;;;;5104192;28;20677;-55
2021/01/31 01:37:30;;;;;;;4.30;3.90;;;16.90;52.40;;;;;;5104592;28;20182;-55
2021/01/31 01:39:56;;;;;;;4.50;4.10;;;16.90;52.30;;;;;;5104585;28;21027;-60
2021/01/31 01:42:21;;;;;;;4.75;3.80;;;16.80;52.20;;;;;;5104278;28;20349;-59
2021/01/31 01:44:47;;;;;;;4.85;3.80;;;16.80;52.30;;;;;;5107714;28;20205;-55
2021/01/31 01:47:22;;;;;;;4.18;3.72;;;16.80;52.30;;;;;;5107978;28;20187;-56
2021/01/31 01:49:49;;;;;;;4.05;3.60;;;16.80;52.30;;;;;;5073761;28;20172;-59
2021/01/31 01:52:23;;;;;;;4.45;4.05;;;16.80;52.30;;;;;;5108344;28;20204;-56
2021/01/31 01:54:54;;;;;;;4.18;3.78;;;16.80;52.30;;;;;;5089938;28;20175;-52
2021/01/31 01:57:25;;;;;;;4.00;3.60;;;16.80;52.30;;;;;;5073345;28;20176;-57
2021/01/31 01:59:50;;;;;;;3.78;3.33;;;16.70;52.30;;;;;;5073601;28;20953;-52
2021/01/31 02:02:29;;;;;;;4.25;3.85;;;16.70;52.30;;;;;;5108023;28;20204;-51
2021/01/31 02:04:55;;;;;;;4.00;3.60;;;16.70;52.30;;;;;;5089980;28;20256;-57
2021/01/31 02:07:20;;;;;;;4.00;3.60;;;16.70;52.30;;;;;;5073260;28;20257;-53
2021/01/31 02:09:49;;;;;;;3.58;3.25;;;16.70;52.30;;;;;;5108045;28;20325;-53
2021/01/31 02:12:18;;;;;;;3.85;3.42;;;16.60;52.30;;;;;;5107957;28;20224;-57
2021/01/31 02:14:44;;;;;;;3.60;3.30;;;16.70;52.40;;;;;;5090074;28;20169;-58
2021/01/31 02:17:18;;;;;;;3.95;3.58;;;16.70;52.30;;;;;;5108156;28;20256;-56
2021/01/31 02:20:15;;;;;;;4.32;3.92;;;16.70;52.30;;;;;;5073406;28;20173;-56
2021/01/31 02:22:44;;;;;;;3.85;3.40;;;16.60;52.20;;;;;;5091372;28;20169;-53
2021/01/31 02:25:47;;;;;;;3.70;3.40;;;16.70;52.30;;;;;;5107805;28;20639;-53
2021/01/31 02:28:28;;;;;;;3.70;3.40;;;16.60;52.20;;;;;;5107418;28;20264;-56
2021/01/31 02:31:29;;;;;;;3.60;3.30;;;16.60;52.30;;;;;;5107447;28;20170;-52
2021/01/31 02:34:13;;;;;;;3.33;3.08;;;16.60;52.30;;;;;;5092081;28;20190;-52
2021/01/31 02:37:16;;;;;;;3.67;3.35;;;16.60;52.30;;;;;;5092188;28;20186;-56
2021/01/31 02:39:41;;;;;;;3.85;3.53;;;16.60;52.30;;;;;;5092119;28;20183;-57
2021/01/31 02:42:28;;;;;;;3.65;3.35;;;16.50;52.30;;;;;;5107399;28;20177;-56
2021/01/31 02:45:05;;;;;;;3.50;3.17;;;16.50;52.30;;;;;;5107382;28;20181;-57
2021/01/31 02:47:31;;;;;;;3.45;3.20;;;16.50;52.20;;;;;;5089251;28;20177;-55
2021/01/31 02:50:01;;;;;;;3.33;3.13;;;16.50;52.30;;;;;;5072301;28;20173;-57
2021/01/31 02:52:35;;;;;;;3.60;3.30;;;16.50;52.30;;;;;;5089057;28;20270;-54
2021/01/31 02:55:08;;;;;;;3.42;3.13;;;16.50;52.30;;;;;;5071720;28;20874;-53
2021/01/31 02:57:37;;;;;;;3.42;3.13;;;16.50;52.30;;;;;;5089012;28;20533;-57
2021/01/31 03:00:19;;;;;;;3.50;3.20;;;16.50;52.40;;;;;;5089093;28;20169;-53
2021/01/31 03:03:10;;;;;;;3.58;3.28;;;16.50;52.30;;;;;;5089894;28;20181;-53
2021/01/31 03:05:39;;;;;;;3.95;3.17;;;16.40;52.20;;;;;;5106518;28;20166;-55
2021/01/31 03:08:10;;;;;;;3.78;3.28;;;16.40;52.20;;;;;;5071836;28;20177;-56
2021/01/31 03:10:46;;;;;;;3.20;2.90;;;16.40;52.30;;;;;;5106607;28;20177;-55
2021/01/31 03:13:22;;;;;;;3.50;3.20;;;16.40;52.30;;;;;;5072525;28;20331;-55
2021/01/31 03:15:54;;;;;;;3.33;3.03;;;16.40;52.30;;;;;;5088390;28;20169;-56
2021/01/31 03:18:32;;;;;;;3.03;2.83;;;16.40;52.30;;;;;;5089151;28;20188;-58
2021/01/31 03:21:21;;;;;;;3.28;2.97;;;16.30;52.30;;;;;;5072213;28;20199;-55
2021/01/31 03:24:14;;;;;;;3.22;3.00;;;16.40;52.30;;;;;;5106511;28;20173;-56
2021/01/31 03:26:49;;;;;;;4.07;3.13;;;16.40;52.30;;;;;;5074005;28;20587;-55
2021/01/31 03:29:15;;;;;;;3.20;3.00;;;16.30;52.30;;;;;;5088094;28;20203;-56
2021/01/31 03:31:42;;;;;;;3.20;2.90;;;16.30;52.30;;;;;;5088005;28;20208;-52
2021/01/31 03:34:13;;;;;;;2.70;2.50;;;16.30;52.20;;;;;;5071319;28;20223;-52
2021/01/31 03:36:44;;;;;;;3.63;3.33;;;16.30;52.30;;;;;;5071546;28;20184;-54
2021/01/31 03:39:10;;;;;;;3.30;3.00;;;16.30;52.30;;;;;;5088510;28;20165;-59
2021/01/31 03:41:35;;;;;;;3.88;3.17;;;16.30;52.20;;;;;;5071608;28;20183;-55
2021/01/31 03:44:01;;;;;;;3.53;3.22;;;16.20;52.20;;;;;;5106147;28;20182;-59
2021/01/31 03:46:29;;;;;;;3.58;3.15;;;16.30;52.30;;;;;;5106363;28;20185;-59
2021/01/31 03:49:02;;;;;;;3.33;3.03;;;16.20;52.20;;;;;;5106347;28;20173;-57
2021/01/31 03:51:28;;;;;;;3.22;3.00;;;16.30;52.20;;;;;;5088770;28;20176;-55
2021/01/31 03:53:54;;;;;;;3.10;2.80;;;16.20;52.20;;;;;;5106118;28;20169;-53
2021/01/31 03:56:22;;;;;;;2.70;2.50;;;16.20;52.20;;;;;;5087634;28;20181;-56
2021/01/31 03:58:49;;;;;;;3.42;3.15;;;16.20;52.20;;;;;;5071174;28;20185;-54
2021/01/31 04:01:15;;;;;;;3.53;3.22;;;16.20;52.30;;;;;;5087794;28;20177;-54
2021/01/31 04:04:06;;;;;;;3.63;3.33;;;16.20;52.30;;;;;;5070848;28;20187;-49
2021/01/31 04:06:33;;;;;;;3.35;3.05;;;16.20;52.20;;;;;;5072848;28;20165;-55
2021/01/31 04:08:58;;;;;;;3.22;2.92;;;16.20;52.30;;;;;;5070914;28;20180;-57
2021/01/31 04:11:34;;;;;;;3.22;3.03;;;16.10;52.20;;;;;;5105365;28;20173;-57
2021/01/31 04:14:03;;;;;;;3.13;2.92;;;16.20;52.30;;;;;;5105489;28;20634;-55
2021/01/31 04:16:32;;;;;;;3.10;2.90;;;16.10;52.20;;;;;;5087443;28;20180;-54
2021/01/31 04:18:57;;;;;;;3.10;2.80;;;16.10;52.20;;;;;;5070581;28;20296;-54
2021/01/31 04:21:23;;;;;;;2.88;2.67;;;16.10;52.20;;;;;;5105440;28;20181;-53
2021/01/31 04:23:48;;;;;;;3.20;2.97;;;16.10;52.20;;;;;;5105670;28;20271;-49
2021/01/31 04:26:14;;;;;;;3.13;2.88;;;16.10;52.20;;;;;;5105208;28;20177;-52
2021/01/31 04:28:40;;;;;;;3.47;3.17;;;16.10;52.20;;;;;;5105219;28;20193;-54
2021/01/31 04:31:05;;;;;;;3.17;2.80;;;16.00;52.20;;;;;;5105010;28;20173;-58
2021/01/31 04:33:31;;;;;;;3.22;2.92;;;16.00;52.10;;;;;;5105465;28;20738;-53
2021/01/31 04:35:56;;;;;;;2.97;2.67;;;16.00;52.20;;;;;;5105286;28;20218;-56
2021/01/31 04:38:22;;;;;;;3.00;2.78;;;16.00;52.20;;;;;;5105039;28;20249;-56
2021/01/31 04:40:47;;;;;;;3.05;2.85;;;16.00;52.20;;;;;;5104988;28;20173;-60
2021/01/31 04:43:16;;;;;;;3.22;2.95;;;16.00;52.20;;;;;;5105099;28;20202;-54
2021/01/31 04:45:41;;;;;;;3.08;2.88;;;16.00;52.20;;;;;;5104867;28;20606;-56
2021/01/31 04:48:12;;;;;;;3.28;2.97;;;16.00;52.20;;;;;;5070261;28;20212;-57
2021/01/31 04:51:07;;;;;;;2.95;2.75;;;15.90;52.20;;;;;;5104901;28;20169;-56
2021/01/31 04:53:46;;;;;;;2.80;2.60;;;16.00;52.20;;;;;;5104206;28;20256;-56
2021/01/31 04:56:33;;;;;;;3.03;2.83;;;15.90;52.20;;;;;;5086235;28;20630;-54
2021/01/31 04:59:25;;;;;;;3.47;3.17;;;15.90;52.20;;;;;;5089456;28;20689;-55
2021/01/31 05:01:57;;;;;;;2.97;2.67;;;15.90;52.20;;;;;;5089153;28;20193;-54
2021/01/31 05:04:23;;;;;;;2.85;2.65;;;15.90;52.20;;;;;;5087149;28;20868;-56
2021/01/31 05:06:51;;;;;;;3.20;2.92;;;15.90;52.20;;;;;;5086590;28;20181;-56
2021/01/31 05:09:22;;;;;;;3.25;2.85;;;15.90;52.20;;;;;;5086809;28;20180;-54
2021/01/31 05:12:02;;;;;;;3.47;2.80;;;15.90;52.20;;;;;;5104878;28;20211;-57
2021/01/31 05:14:53;;;;;;;3.40;3.10;;;15.90;52.20;;;;;;5104495;28;20165;-55
2021/01/31 05:17:18;;;;;;;3.03;2.83;;;15.80;52.10;;;;;;5071348;28;20173;-58
2021/01/31 05:19:44;;;;;;;2.92;2.72;;;15.80;52.10;;;;;;5086444;28;20531;-59
2021/01/31 05:22:11;;;;;;;2.90;2.70;;;15.80;52.20;;;;;;5086370;28;20177;-59
2021/01/31 05:24:36;;;;;;;3.00;2.80;;;15.80;52.20;;;;;;5069675;28;20623;-56
2021/01/31 05:27:02;;;;;;;3.17;2.88;;;15.80;52.20;;;;;;5086771;28;20191;-54
2021/01/31 05:29:32;;;;;;;2.80;2.58;;;15.80;52.20;;;;;;5086617;28;20193;-55
2021/01/31 05:32:08;;;;;;;2.97;2.78;;;15.80;52.20;;;;;;5104417;28;20201;-53
2021/01/31 05:34:45;;;;;;;2.83;2.63;;;15.80;52.20;;;;;;5086239;28;20177;-57
2021/01/31 05:37:15;;;;;;;2.60;2.40;;;15.80;52.20;;;;;;5086121;28;20281;-58
2021/01/31 05:39:43;;;;;;;2.63;2.38;;;15.80;52.20;;;;;;5104502;28;20177;-58
2021/01/31 05:42:19;;;;;;;2.90;2.70;;;15.70;52.10;;;;;;5104747;28;20177;-59
2021/01/31 05:44:56;;;;;;;2.65;2.45;;;15.70;52.20;;;;;;5086341;28;20169;-57
2021/01/31 05:47:22;;;;;;;3.13;2.85;;;15.70;52.10;;;;;;5087611;28;20216;-60
2021/01/31 05:49:48;;;;;;;3.00;2.80;;;15.70;52.10;;;;;;5085767;28;20242;-52
2021/01/31 05:52:23;;;;;;;2.67;2.47;;;15.70;52.20;;;;;;5086242;28;20205;-55
2021/01/31 05:54:52;;;;;;;2.95;2.75;;;15.70;52.20;;;;;;5104203;28;20691;-58
2021/01/31 05:57:34;;;;;;;2.70;2.50;;;15.70;52.20;;;;;;5086377;28;20169;-56
2021/01/31 06:00:03;;;;;;;2.60;2.40;;;15.70;52.20;;;;;;5086113;28;20974;-54
2021/01/31 06:02:30;;;;;;;2.55;2.35;;;15.70;52.90;;;;;;5085936;28;20192;-55
2021/01/31 06:05:11;;;;;;;2.67;2.47;;;15.70;52.00;;;;;;5104060;28;20177;-57
2021/01/31 06:07:38;;;;;;;2.70;2.50;;;15.70;52.10;;;;;;5103664;28;20177;-56
2021/01/31 06:10:23;;;;;;;2.70;2.50;;;15.80;52.30;;;;;;5085955;28;20188;-57
2021/01/31 06:12:49;;;;;;;2.30;2.13;;;16.10;52.30;;;;;;5085481;28;20244;-54
2021/01/31 06:15:29;;;;;;;2.45;2.25;;;16.40;52.10;;;;;;5069010;28;20227;-53
2021/01/31 06:18:05;;;;;;;2.10;2.00;;;16.70;51.70;;;;;;5085784;28;20525;-52
2021/01/31 06:20:32;;;;;;;2.40;2.20;;;17.00;51.20;;;;;;5070525;28;20180;-51
2021/01/31 06:22:58;;;;;;;2.20;2.08;;;17.40;50.40;;;;;;5068960;28;20176;-52
2021/01/31 06:25:27;;;;;;;2.30;2.20;;;17.70;49.90;;;;;;5085857;28;20185;-55
2021/01/31 06:28:08;;;;;;;2.10;2.00;;;18.00;49.40;;;;;;5103784;28;20197;-53
2021/01/31 06:30:34;;;;;;;1.98;1.88;;;18.20;49.00;;;;;;5089966;28;20638;-53
2021/01/31 06:33:00;;;;;;;2.17;2.08;;;18.30;48.70;;;;;;5089484;28;20217;-54
2021/01/31 06:35:25;;;;;;;1.95;1.80;;;18.30;48.70;;;;;;5108009;28;20173;-54
2021/01/31 06:38:03;;;;;;;2.38;2.17;;;18.40;48.60;;;;;;5089352;28;20215;-53
2021/01/31 06:40:50;;;;;;;1.92;1.77;;;18.40;48.60;;;;;;5107275;28;20169;-57
2021/01/31 06:43:41;;;;;;;1.85;1.75;;;18.40;48.70;;;;;;5107434;28;20218;-59
2021/01/31 06:46:18;;;;;;;1.95;1.85;;;18.40;48.70;;;;;;5107588;28;20169;-60
2021/01/31 06:49:04;;;;;;;1.80;1.70;;;18.40;48.80;;;;;;5088915;28;20189;-57
2021/01/31 06:51:41;;;;;;;2.00;1.90;;;18.30;48.80;;;;;;5088810;28;20566;-55
2021/01/31 06:54:20;;;;;;;2.03;1.92;;;18.40;48.90;;;;;;5089182;28;20173;-56
2021/01/31 06:56:49;;;;;;;1.80;1.70;;;18.40;48.80;;;;;;5073108;28;20173;-59
2021/01/31 06:59:33;;;;;;;1.90;1.80;;;18.30;48.90;;;;;;5107006;28;20185;-56
2021/01/31 07:02:17;;;;;;;2.05;1.95;;;18.30;48.90;;;;;;5106974;28;20173;-54
2021/01/31 07:05:05;;;;;;;1.90;1.80;;;18.30;49.00;;;;;;5107137;28;20173;-56
2021/01/31 07:07:53;;;;;;;1.90;1.80;;;18.20;49.00;;;;;;5088581;28;20181;-55
2021/01/31 07:10:27;;;;;;;1.90;1.80;;;18.20;49.10;;;;;;5091437;28;20173;-53
2021/01/31 07:13:13;;;;;;;1.67;1.58;;;18.20;49.20;;;;;;5107135;28;20257;-59
2021/01/31 07:15:45;;;;;;;1.67;1.58;;;18.20;49.10;;;;;;5081012;28;20542;-58
2021/01/31 07:18:12;;;;;;;2.03;1.88;;;18.20;49.20;;;;;;5088795;28;20226;-57
2021/01/31 07:20:45;;;;;;;2.38;1.60;;;18.20;49.20;;;;;;5071792;28;20245;-59
2021/01/31 07:23:32;;;;;;;2.00;1.75;;;18.20;49.20;;;;;;5072644;28;20200;-57
2021/01/31 07:25:59;;;;;;;2.42;2.22;;;18.20;49.20;;;;;;5090189;28;20172;-53
2021/01/31 07:28:32;;;;;;;1.90;1.80;;;18.20;49.20;;;;;;5088439;28;20188;-56
2021/01/31 07:31:17;;;;;;;1.92;1.83;;;18.20;49.20;;;;;;5071823;28;20169;-52
2021/01/31 07:34:02;;;;;;;2.25;2.05;;;18.20;49.20;;;;;;5106444;28;21029;-58
2021/01/31 07:36:38;;;;;;;1.65;1.55;;;18.20;49.20;;;;;;5088720;28;20166;-58
2021/01/31 07:39:10;;;;;;;1.98;1.77;;;18.10;49.30;;;;;;5071519;28;20219;-59
2021/01/31 07:41:44;;;;;;;2.25;1.77;;;18.00;49.50;;;;;;5105673;28;20165;-59
2021/01/31 07:44:10;;;;;;;1.83;1.60;;;18.00;49.50;;;;;;5087926;28;20173;-56
2021/01/31 07:46:36;;;;;;;2.35;2.15;;;18.00;49.60;;;;;;5070975;28;20200;-60
2021/01/31 07:49:03;;;;;;;1.67;1.58;;;18.00;49.60;;;;;;5088020;28;20216;-58
2021/01/31 07:51:37;;;;;;;1.88;1.77;;;18.00;49.60;;;;;;5104801;28;20594;-56
2021/01/31 07:54:21;;;;;;;2.15;1.98;;;18.00;49.60;;;;;;5105678;28;20198;-54
2021/01/31 07:56:48;;;;;;;1.60;1.50;;;18.00;49.60;;;;;;5106354;28;20179;-56
2021/01/31 07:59:13;;;;;;;1.60;1.50;;;18.00;49.60;;;;;;5070995;28;20539;-58
2021/01/31 08:01:47;;;;;;;2.00;1.90;;;18.00;49.60;;;;;;5105677;28;20180;-54
2021/01/31 08:04:16;;;;;;;2.08;1.90;;;18.00;49.60;;;;;;5087188;28;20183;-62
2021/01/31 08:06:58;;;;;;;2.30;1.90;;;18.00;49.60;;;;;;5105644;28;20165;-60
2021/01/31 08:09:27;;;;;;;2.40;2.20;;;18.10;49.70;;;;;;5105628;28;20180;-60
2021/01/31 08:11:57;;;;;;;2.03;1.90;;;18.10;49.90;;;;;;5105458;28;20213;-60
2021/01/31 08:15:00;;;;;;;2.47;2.28;;;18.10;49.70;;;;;;5105783;28;20257;-61
2021/01/31 08:17:54;;;;;;;3.45;2.80;;;18.10;49.90;;;;;;5087282;28;20187;-62
2021/01/31 08:20:31;;;;;;;2.00;1.80;;;18.20;50.00;;;;;;5105170;28;20169;-62
2021/01/31 08:22:58;;;;;;;3.45;2.15;;;18.10;49.80;;;;;;5105042;28;20172;-62
2021/01/31 08:25:31;;;;;;;2.20;2.00;;;18.10;50.10;;;;;;5105180;28;20206;-61
2021/01/31 08:28:03;;;;;;;3.45;2.28;;;18.00;50.20;;;;;;5086857;28;20308;-63
2021/01/31 08:30:31;;;;;;;2.20;2.00;;;18.00;50.50;;;;;;5105563;28;20532;-61
2021/01/31 08:33:02;;;;;;;2.20;2.00;;;17.90;50.60;;;;;;5086848;28;20204;-61
2021/01/31 08:35:36;;;;;;;2.67;2.00;;;17.90;50.80;;;;;;5104833;28;20173;-62
2021/01/31 08:38:32;;;;;;;2.45;2.25;;;17.90;50.80;;;;;;5105081;28;20173;-62
2021/01/31 08:41:03;;;;;;;2.95;2.40;;;17.90;50.90;;;;;;5087718;28;20259;-63
2021/01/31 08:43:38;;;;;;;2.13;1.90;;;17.90;51.20;;;;;;5104891;28;20276;-63
2021/01/31 08:46:04;;;;;;;3.45;2.20;;;17.90;50.70;;;;;;5104886;28;20168;-61
2021/01/31 08:48:29;;;;;;;4.30;2.22;;;17.80;50.70;;;;;;5086912;28;20165;-61
2021/01/31 08:51:24;;;;;;;2.45;2.20;;;17.90;50.70;;;;;;5086875;28;20634;-61
2021/01/31 08:54:09;;;;;;;4.00;2.05;;;17.90;50.70;;;;;;5081492;28;20222;-61
2021/01/31 08:56:41;;;;;;;2.13;1.92;;;17.90;50.80;;;;;;5065194;28;20180;-61
2021/01/31 08:59:09;;;;;;;2.35;2.15;;;17.80;50.80;;;;;;5083292;28;20410;-61
2021/01/31 09:01:42;;;;;;;2.45;1.80;;;17.80;50.90;;;;;;5083435;28;20204;-62
2021/01/31 09:04:12;;;;;;;2.08;1.95;;;17.80;51.00;;;;;;5063431;28;20196;-61
2021/01/31 09:06:38;;;;;;;2.10;2.00;;;17.80;51.00;;;;;;5065135;28;20173;-61
2021/01/31 09:09:04;;;;;;;3.42;2.20;;;17.90;50.90;;;;;;5066204;28;20641;-62
2021/01/31 09:11:29;;;;;;;2.40;2.20;;;17.90;51.00;;;;;;5066244;28;20181;-60
2021/01/31 09:13:55;;;;;;;2.38;1.88;;;17.90;50.90;;;;;;5084259;28;20214;-61
2021/01/31 09:16:25;;;;;;;2.33;2.13;;;17.90;51.00;;;;;;5067249;28;20188;-61
2021/01/31 09:19:18;;;;;;;2.05;1.88;;;17.90;50.90;;;;;;5086704;28;20184;-61
2021/01/31 09:21:45;;;;;;;2.47;2.00;;;17.90;51.00;;;;;;5067949;28;20268;-62
2021/01/31 09:24:13;;;;;;;2.10;1.95;;;17.80;51.10;;;;;;5051935;28;20219;-61
2021/01/31 09:26:38;;;;;;;2.20;1.95;;;17.80;51.10;;;;;;5069731;28;20161;-60
2021/01/31 09:29:09;;;;;;;2.50;2.25;;;17.80;51.10;;;;;;5069449;28;20199;-62
2021/01/31 09:31:35;;;;;;;2.05;1.95;;;17.70;51.20;;;;;;5069703;28;20168;-58
2021/01/31 09:34:00;;;;;;;3.17;2.00;;;17.70;51.10;;;;;;5051898;28;20569;-61
2021/01/31 09:36:31;;;;;;;2.55;1.98;;;17.70;51.10;;;;;;5062668;28;20167;-61
2021/01/31 09:38:58;;;;;;;1.80;1.70;;;17.60;51.30;;;;;;5063573;28;20261;-60
2021/01/31 09:41:25;;;;;;;2.47;2.10;;;17.60;51.40;;;;;;5062403;28;20178;-61
2021/01/31 09:43:52;;;;;;;2.30;2.10;;;17.50;51.30;;;;;;5062263;28;20179;-60
2021/01/31 09:46:19;;;;;;;2.15;1.95;;;17.50;51.20;;;;;;5063606;28;20166;-61
2021/01/31 09:48:44;;;;;;;2.53;2.33;;;17.50;51.40;;;;;;5062241;28;20210;-61
2021/01/31 09:51:23;;;;;;;2.20;2.00;;;17.50;51.30;;;;;;5068870;28;20196;-61
2021/01/31 09:53:49;;;;;;;2.10;2.00;;;17.50;51.40;;;;;;5069057;28;20208;-60
2021/01/31 09:56:37;;;;;;;2.38;2.17;;;17.50;51.30;;;;;;5103941;28;20541;-61
2021/01/31 09:59:03;;;;;;;2.30;2.10;;;17.50;51.40;;;;;;5085848;28;20176;-61
2021/01/31 10:01:29;;;;;;;2.17;1.98;;;17.40;51.30;;;;;;5069041;28;20166;-62
2021/01/31 10:04:05;;;;;;;2.55;2.05;;;17.40;51.30;;;;;;5069163;28;20182;-62
2021/01/31 10:06:42;;;;;;;2.00;1.90;;;17.40;51.20;;;;;;5072926;28;20854;-63
2021/01/31 10:09:07;;;;;;;2.15;2.00;;;17.50;51.10;;;;;;5108181;28;20161;-62
2021/01/31 10:11:38;;;;;;;2.40;2.20;;;17.50;51.00;;;;;;5108436;28;20646;-62
2021/01/31 10:14:09;;;;;;;2.35;2.15;;;17.50;50.90;;;;;;5107259;28;20177;-60
2021/01/31 10:16:36;;;;;;;2.58;2.38;;;17.50;50.90;;;;;;5107600;28;20216;-62
2021/01/31 10:19:18;;;;;;;2.28;2.08;;;17.50;50.90;;;;;;5089657;28;20264;-61
2021/01/31 10:21:54;;;;;;;2.40;2.20;;;17.50;50.90;;;;;;5107746;28;20173;-61
2021/01/31 10:24:30;;;;;;;2.30;2.20;;;17.50;50.90;;;;;;5062767;28;20227;-62
2021/01/31 10:27:28;;;;;;;2.47;2.28;;;17.50;51.00;;;;;;5067091;28;20257;-62
2021/01/31 10:29:54;;;;;;;2.47;2.30;;;17.40;51.10;;;;;;5066839;28;20179;-61
2021/01/31 10:32:37;;;;;;;2.15;1.95;;;17.40;51.10;;;;;;5066872;28;20381;-61
2021/01/31 10:35:25;;;;;;;2.72;2.53;;;17.40;51.10;;;;;;5065617;28;20239;-61
2021/01/31 10:37:51;;;;;;;2.42;2.22;;;17.40;51.00;;;;;;5055002;28;20628;-60
2021/01/31 10:40:16;;;;;;;2.28;2.15;;;17.40;51.00;;;;;;5065539;28;20184;-62
2021/01/31 10:42:42;;;;;;;2.53;2.33;;;17.40;51.00;;;;;;5066221;28;20177;-61
2021/01/31 10:45:14;;;;;;;2.60;2.33;;;17.40;50.80;;;;;;5066800;28;20186;-60
2021/01/31 10:47:41;;;;;;;2.17;2.05;;;17.40;50.90;;;;;;5065463;28;20173;-60
2021/01/31 10:50:08;;;;;;;2.13;2.03;;;17.30;50.90;;;;;;5065165;28;20174;-61
2021/01/31 10:52:33;;;;;;;2.40;2.20;;;17.30;50.90;;;;;;5066024;28;20214;-60
2021/01/31 10:54:59;;;;;;;2.25;2.05;;;17.30;51.00;;;;;;5065673;28;20207;-58
2021/01/31 10:57:24;;;;;;;2.20;2.10;;;17.30;51.00;;;;;;5066383;28;20177;-61
2021/01/31 10:59:51;;;;;;;2.50;2.30;;;17.30;51.10;;;;;;5066230;28;20243;-59
2021/01/31 11:02:17;;;;;;;2.50;2.30;;;17.20;50.90;;;;;;5065142;28;20167;-60
2021/01/31 11:04:42;;;;;;;2.65;2.45;;;17.30;51.00;;;;;;5066314;28;20518;-59
2021/01/31 11:07:08;;;;;;;2.35;2.15;;;17.30;50.90;;;;;;5066199;28;20228;-62
2021/01/31 11:09:34;;;;;;;2.35;2.20;;;17.30;50.80;;;;;;5066062;28;20232;-61
2021/01/31 11:12:00;;;;;;;2.95;2.63;;;17.30;50.80;;;;;;5066571;28;20198;-61
2021/01/31 11:14:26;;;;;;;2.70;2.50;;;17.30;50.80;;;;;;5066155;28;20174;-62
2021/01/31 11:16:51;;;;;;;3.20;2.85;;;17.30;50.70;;;;;;5065874;28;20174;-62
2021/01/31 11:19:17;;;;;;;2.78;2.58;;;17.20;50.40;;;;;;5066154;28;20270;-60
2021/01/31 11:21:42;;;;;;;2.80;2.55;;;17.20;50.30;;;;;;5066124;28;20179;-61
2021/01/31 11:24:08;;;;;;;2.88;2.70;;;17.20;50.40;;;;;;5074870;28;20169;-59
2021/01/31 11:26:34;;;;;;;2.70;2.50;;;17.20;50.50;;;;;;5106192;28;20216;-64
2021/01/31 11:28:59;;;;;;;2.60;2.40;;;17.20;50.60;;;;;;5106144;28;20993;-61
2021/01/31 11:31:25;;;;;;;3.17;2.85;;;17.20;50.50;;;;;;5106296;28;20184;-62
2021/01/31 11:33:52;;;;;;;2.85;2.65;;;17.30;50.50;;;;;;5106271;28;20220;-62
2021/01/31 11:36:18;;;;;;;3.60;2.40;;;17.40;50.40;;;;;;5106152;28;20288;-58
2021/01/31 11:38:43;;;;;;;3.78;2.53;;;17.40;50.40;;;;;;5070968;28;20996;-61
2021/01/31 11:41:09;;;;;;;3.42;3.13;;;17.50;50.40;;;;;;5106100;28;20180;-61
2021/01/31 11:43:34;;;;;;;2.65;2.45;;;17.50;50.30;;;;;;5106020;28;20189;-59
2021/01/31 11:46:00;;;;;;;3.10;2.55;;;17.60;50.10;;;;;;5106065;28;20161;-61
2021/01/31 11:48:26;;;;;;;2.60;2.40;;;17.70;50.10;;;;;;5105764;28;20212;-58
2021/01/31 11:50:51;;;;;;;2.83;2.30;;;17.70;50.00;;;;;;5105881;28;20897;-63
2021/01/31 11:53:17;;;;;;;2.42;2.20;;;17.80;50.00;;;;;;5105427;28;20971;-60
2021/01/31 11:55:42;;;;;;;2.47;2.22;;;17.90;49.90;;;;;;5105474;28;20165;-63
2021/01/31 11:58:10;;;;;;;2.75;2.50;;;18.00;50.00;;;;;;5105550;28;20203;-60
2021/01/31 12:00:35;;;;;;;2.85;2.47;;;18.00;50.00;;;;;;5105654;28;21038;-67
2021/01/31 12:03:01;;;;;;;2.60;2.40;;;18.00;50.10;;;;;;5105413;28;20214;-64
2021/01/31 12:05:27;;;;;;;2.90;2.70;;;18.00;50.10;;;;;;5087479;28;20530;-65
2021/01/31 12:07:52;;;;;;;2.40;2.20;;;18.00;50.30;;;;;;5105170;28;20173;-64
2021/01/31 12:10:18;;;;;;;2.72;2.53;;;18.00;50.40;;;;;;5086858;28;20178;-63
2021/01/31 12:12:44;;;;;;;2.95;2.47;;;18.00;50.40;;;;;;5105537;28;20945;-64
2021/01/31 12:15:12;;;;;;;4.15;2.78;;;18.10;50.40;;;;;;5105457;28;20177;-66
2021/01/31 12:17:38;;;;;;;2.53;2.28;;;18.10;50.40;;;;;;5105255;28;20200;-64
2021/01/31 12:20:05;;;;;;;2.75;2.55;;;18.10;50.30;;;;;;5105257;28;20165;-65
2021/01/31 12:22:30;;;;;;;2.42;2.13;;;18.10;50.50;;;;;;5105113;28;20181;-66
2021/01/31 12:24:56;;;;;;;2.42;2.20;;;18.10;50.50;;;;;;5093664;28;20182;-64
2021/01/31 12:27:24;;;;;;;3.15;2.50;;;18.00;50.50;;;;;;5084323;28;20178;-65
2021/01/31 12:29:50;;;;;;;2.90;2.70;;;18.00;50.50;;;;;;5084507;28;20174;-64
2021/01/31 12:32:15;;;;;;;3.03;2.10;;;18.00;50.50;;;;;;5084726;28;20217;-63
2021/01/31 12:34:41;;;;;;;3.72;2.28;;;17.90;50.60;;;;;;5084736;28;20174;-62
2021/01/31 12:37:06;;;;;;;2.70;2.25;;;17.90;50.70;;;;;;5084720;28;20176;-63
2021/01/31 12:39:32;;;;;;;2.53;2.38;;;17.90;50.80;;;;;;5084511;28;20285;-62
2021/01/31 12:41:57;;;;;;;2.97;2.25;;;17.80;50.80;;;;;;5084619;28;20181;-64
2021/01/31 12:44:23;;;;;;;2.63;2.42;;;17.80;50.80;;;;;;5084631;28;20176;-63
2021/01/31 12:46:48;;;;;;;2.22;2.10;;;17.80;50.80;;;;;;5084760;28;20174;-64
2021/01/31 12:49:14;;;;;;;2.35;2.15;;;17.80;50.90;;;;;;5084205;28;20182;-63
2021/01/31 12:51:40;;;;;;;5.63;2.45;;;17.80;50.80;;;;;;5084546;28;20174;-63
2021/01/31 12:54:05;;;;;;;2.30;2.10;;;17.80;50.90;;;;;;5084721;28;20231;-63
2021/01/31 12:56:31;;;;;;;2.42;1.80;;;17.80;50.90;;;;;;5084508;28;20178;-63
2021/01/31 12:58:56;;;;;;;2.30;2.10;;;17.70;50.80;;;;;;5084070;28;20231;-62
2021/01/31 13:01:23;;;;;;;2.20;2.10;;;17.70;50.80;;;;;;5084086;28;20166;-64
2021/01/31 13:03:49;;;;;;;2.30;2.10;;;17.70;51.00;;;;;;5049806;28;20632;-63
2021/01/31 13:06:14;;;;;;;2.58;2.20;;;17.70;51.00;;;;;;5084103;28;20227;-63